LPPT

Lisbon Portela Airport

Lisbon, Portugal
TAF LPPT 221130Z 2212/2318 33015KT 9999 SCT018 SCT035 TEMPO 2215/2218 6000 -RA BKN020 PROB40 TEMPO 2215/2318 33020G30KT
Issued Valid From Valid To
Jan-22 @ 11:30 UTC
(6 hours ago)
Jan-22 @ 12:00 UTC
(6 hours ago)
Jan-23 @ 18:00 UTC
(in 24 hours)
Jan-22 @ 12:00 to Jan-23 @ 18:00
TAF LPPT 221130Z 2212/2318 33015KT 9999 SCT018 SCT035
Wind Visibility Clouds
330° at 15 knots 10,000+ meters
  • Scattered at 1,800' AGL
  • Scattered at 3,500' AGL
Temporary Jan-22 @ 15:00 to Jan-22 @ 18:00
TEMPO 2215/2218 6000 -RA BKN020
Visibility Clouds Conditions
6,003 meters
  • Broken at 2,000' AGL
  • Light Rain
Temporary  (Probability 40%) Jan-22 @ 15:00 to Jan-23 @ 18:00
PROB40 TEMPO 2215/2318 33020G30KT
Wind
330° at 20 knots
 Gusting to 30 knots
TAF LPPT 221130Z 2212/2318 33015KT 9999 SCT018 SCT035 TEMPO 2215/2218 6000 -RA BKN020 PROB40 TEMPO 2215/2318 33020G30KT
Issued Jan-22 @ 11:30 UTC
(6 hours ago)
Valid From Jan-22 @ 12:00 UTC
(6 hours ago)
Valid To Jan-23 @ 18:00 UTC
(in 24 hours)
Jan-22 @ 12:00 - Jan-23 @ 18:00
Wind Visibility
330° at 15 knots 10,000+ meters
Clouds
  • Scattered at 1,800' AGL
  • Scattered at 3,500' AGL
Temporary Jan-22 @ 15:00 - Jan-22 @ 18:00
Clouds
  • Broken at 2,000' AGL
Conditions
  • Light Rain
Probability 40% Temporary Jan-22 @ 15:00 - Jan-23 @ 18:00
Wind
330° at 20 knots
 Gusting to 30 knots